createdAt,value
2018-08-11T00:00:16.405Z,1.07
2018-08-11T00:02:43.356Z,1.10
2018-08-11T00:05:10.310Z,1.10
2018-08-11T00:07:37.261Z,1.57
2018-08-11T00:10:07.082Z,1.03
2018-08-11T00:12:36.082Z,0.93
2018-08-11T00:15:04.247Z,1.10
2018-08-11T00:17:31.276Z,1.00
2018-08-11T00:19:58.190Z,1.03
2018-08-11T00:22:25.190Z,1.33
2018-08-11T00:24:53.141Z,1.50
2018-08-11T00:27:20.106Z,1.00
2018-08-11T00:29:47.045Z,1.10
2018-08-11T00:32:13.967Z,1.10
2018-08-11T00:34:40.858Z,1.23
2018-08-11T00:37:08.862Z,1.27
2018-08-11T00:39:35.797Z,1.30
2018-08-11T00:42:02.756Z,1.10
2018-08-11T00:44:29.718Z,1.17
2018-08-11T00:46:56.665Z,1.23
2018-08-11T00:49:25.682Z,1.13
2018-08-11T00:51:53.672Z,1.00
2018-08-11T00:54:20.573Z,1.03
2018-08-11T00:56:47.466Z,1.10
2018-08-11T00:59:14.418Z,1.00
2018-08-11T01:01:41.383Z,1.40
2018-08-11T01:04:10.254Z,1.40
2018-08-11T01:06:37.133Z,1.10
2018-08-11T01:09:07.053Z,1.20
2018-08-11T01:11:34.102Z,1.20
2018-08-11T01:14:02.740Z,1.53
2018-08-11T01:16:29.670Z,1.33
2018-08-11T01:18:58.261Z,1.13
2018-08-11T01:21:25.229Z,1.30
2018-08-11T01:23:52.171Z,1.20
2018-08-11T01:26:19.173Z,1.23
2018-08-11T01:28:46.102Z,1.43
2018-08-11T01:31:13.056Z,1.40
2018-08-11T01:33:41.770Z,1.37
2018-08-11T01:36:08.683Z,1.33
2018-08-11T01:38:35.586Z,1.40
2018-08-11T01:41:02.538Z,1.27
2018-08-11T01:43:29.585Z,1.40
2018-08-11T01:45:56.506Z,1.20
2018-08-11T01:48:23.405Z,1.30
2018-08-11T01:50:50.354Z,1.57
2018-08-11T01:53:17.313Z,1.27
2018-08-11T01:55:44.790Z,1.37
2018-08-11T01:58:11.698Z,1.20
2018-08-11T02:00:38.617Z,1.17
2018-08-11T02:03:05.569Z,0.97
2018-08-11T02:05:34.261Z,0.93
2018-08-11T02:08:02.273Z,1.10
2018-08-11T02:10:29.162Z,1.10
2018-08-11T02:12:56.053Z,1.30
2018-08-11T02:15:23.006Z,1.20
2018-08-11T02:17:49.965Z,1.50
2018-08-11T02:20:18.348Z,0.93
2018-08-11T02:22:46.238Z,1.10
2018-08-11T02:25:13.241Z,1.23
2018-08-11T02:27:40.230Z,1.37
2018-08-11T02:30:11.102Z,1.10
2018-08-11T02:32:38.360Z,1.30
2018-08-11T02:35:05.928Z,2.37
2018-08-11T02:37:40.574Z,1.60
2018-08-11T02:40:09.197Z,1.17
2018-08-11T02:42:36.160Z,1.57
2018-08-11T02:45:03.554Z,1.10
2018-08-11T02:47:31.378Z,1.43
2018-08-11T02:49:58.334Z,1.33
2018-08-11T02:52:25.308Z,1.10
2018-08-11T02:54:52.823Z,2.20
2018-08-11T02:57:19.711Z,1.13
2018-08-11T02:59:46.669Z,1.30
2018-08-11T03:02:13.625Z,1.47
2018-08-11T03:04:41.315Z,1.40
2018-08-11T03:07:08.254Z,1.27
2018-08-11T03:09:35.217Z,1.50
2018-08-11T03:12:02.220Z,1.27
2018-08-11T03:14:30.159Z,1.30
2018-08-11T03:16:58.863Z,1.37
2018-08-11T03:19:25.822Z,1.60
2018-08-11T03:21:52.873Z,1.43
2018-08-11T03:24:20.334Z,1.60
2018-08-11T03:26:47.332Z,1.83
2018-08-11T03:29:14.279Z,1.40
2018-08-11T03:31:45.707Z,1.60
2018-08-11T03:34:13.327Z,1.70
2018-08-11T03:36:40.270Z,1.80
2018-08-11T03:39:08.777Z,1.53
2018-08-11T03:41:35.725Z,1.30
2018-08-11T03:44:02.672Z,1.70
2018-08-11T03:46:29.614Z,1.70
2018-08-11T03:48:57.362Z,1.73
2018-08-11T03:51:24.258Z,1.80
2018-08-11T03:53:51.222Z,1.60
2018-08-11T03:56:18.164Z,2.03
2018-08-11T03:58:46.165Z,1.50
2018-08-11T04:01:15.886Z,1.73
2018-08-11T04:03:43.333Z,1.70
2018-08-11T04:06:10.331Z,1.70
2018-08-11T04:08:37.249Z,1.80
2018-08-11T04:11:04.394Z,1.70
2018-08-11T04:13:31.884Z,1.37
2018-08-11T04:15:59.041Z,1.93
2018-08-11T04:18:26.010Z,1.60
2018-08-11T04:20:52.965Z,1.87
2018-08-11T04:23:19.942Z,2.27
2018-08-11T04:25:47.922Z,2.17
2018-08-11T04:28:14.865Z,2.00
2018-08-11T04:30:41.845Z,1.70
2018-08-11T04:33:08.789Z,1.90
2018-08-11T04:35:36.350Z,2.07
2018-08-11T04:38:03.369Z,2.00
2018-08-11T04:40:30.278Z,2.07
2018-08-11T04:42:57.250Z,1.87
2018-08-11T04:45:24.162Z,2.33
2018-08-11T04:47:55.274Z,1.80
2018-08-11T04:50:22.281Z,2.60
2018-08-11T04:52:49.251Z,2.37
2018-08-11T04:55:16.937Z,1.93
2018-08-11T04:57:43.894Z,1.60
2018-08-11T05:00:10.858Z,1.93
2018-08-11T05:02:37.805Z,1.63
2018-08-11T05:05:05.366Z,1.87
2018-08-11T05:07:32.325Z,2.07
2018-08-11T05:09:59.303Z,1.93
2018-08-11T05:12:26.251Z,1.70
2018-08-11T05:14:53.268Z,1.53
2018-08-11T05:17:20.165Z,1.70
2018-08-11T05:19:47.343Z,2.03
2018-08-11T05:22:14.278Z,1.87
2018-08-11T05:24:42.257Z,1.47
2018-08-11T05:27:09.174Z,1.93
2018-08-11T05:29:36.921Z,2.20
2018-08-11T05:32:05.779Z,1.60
2018-08-11T05:34:36.630Z,1.83
2018-08-11T05:37:08.417Z,1.73
2018-08-11T05:39:35.355Z,1.70
2018-08-11T05:42:02.311Z,1.57
2018-08-11T05:44:29.350Z,1.67
2018-08-11T05:46:56.254Z,1.70
2018-08-11T05:49:23.198Z,1.50
2018-08-11T05:51:50.179Z,1.40
2018-08-11T05:54:17.942Z,1.90
2018-08-11T05:56:45.406Z,1.67
2018-08-11T05:59:15.929Z,2.07
2018-08-11T06:01:42.886Z,1.80
2018-08-11T06:04:09.850Z,1.70
2018-08-11T06:06:37.429Z,1.50
2018-08-11T06:09:08.998Z,1.63
2018-08-11T06:11:38.729Z,1.67
2018-08-11T06:14:06.385Z,1.80
2018-08-11T06:16:35.014Z,1.43
2018-08-11T06:19:01.942Z,1.30
2018-08-11T06:21:28.905Z,1.67
2018-08-11T06:23:59.342Z,1.87
2018-08-11T06:26:26.347Z,1.90
2018-08-11T06:28:53.258Z,1.67
2018-08-11T06:31:21.376Z,1.50
2018-08-11T06:33:48.195Z,1.80
2018-08-11T06:36:15.379Z,1.47
2018-08-11T06:38:42.313Z,1.93
2018-08-11T06:41:09.274Z,4.00
2018-08-11T06:43:36.250Z,2.67
2018-08-11T06:46:03.909Z,1.90
2018-08-11T06:48:30.872Z,1.40
2018-08-11T06:50:58.446Z,1.47
2018-08-11T06:53:25.450Z,1.23
2018-08-11T06:55:52.356Z,1.60
2018-08-11T06:58:20.509Z,1.40
2018-08-11T07:00:47.407Z,1.40
2018-08-11T07:03:15.378Z,1.10
2018-08-11T07:05:42.333Z,1.33
2018-08-11T07:08:09.252Z,1.13
2018-08-11T07:10:36.169Z,1.40
2018-08-11T07:13:03.253Z,1.60
2018-08-11T07:15:30.190Z,1.73
2018-08-11T07:17:57.113Z,1.37
2018-08-11T07:20:24.037Z,1.53
2018-08-11T07:22:50.914Z,1.43
2018-08-11T07:25:17.881Z,1.20
2018-08-11T07:27:44.843Z,1.10
2018-08-11T07:30:11.941Z,1.23
2018-08-11T07:32:38.855Z,1.50
2018-08-11T07:35:05.813Z,1.10
2018-08-11T07:37:32.770Z,1.77
2018-08-11T07:39:59.742Z,1.20
2018-08-11T07:42:26.682Z,1.40
2018-08-11T07:44:53.638Z,1.43
2018-08-11T07:47:20.593Z,1.10
2018-08-11T07:49:47.611Z,1.30
2018-08-11T07:52:14.486Z,1.20
2018-08-11T07:54:41.406Z,1.20
2018-08-11T07:57:08.309Z,1.60
2018-08-11T07:59:35.284Z,1.23
2018-08-11T08:02:02.245Z,1.53
2018-08-11T08:04:30.026Z,1.40
2018-08-11T08:06:56.987Z,1.40
2018-08-11T08:09:23.952Z,1.23
2018-08-11T08:11:50.897Z,1.40
2018-08-11T08:14:17.814Z,1.70
2018-08-11T08:16:44.731Z,1.37
2018-08-11T08:19:11.661Z,1.33
2018-08-11T08:21:38.639Z,1.37
2018-08-11T08:24:06.498Z,1.30
2018-08-11T08:26:33.605Z,1.67
2018-08-11T08:29:00.427Z,1.43
2018-08-11T08:31:27.425Z,2.20
2018-08-11T08:33:54.454Z,1.37
2018-08-11T08:36:21.272Z,1.80
2018-08-11T08:38:48.233Z,1.77
2018-08-11T08:41:15.302Z,1.50
2018-08-11T08:43:42.261Z,1.47
2018-08-11T08:46:10.249Z,1.47
2018-08-11T08:48:37.166Z,1.73
2018-08-11T08:51:04.087Z,1.47
2018-08-11T08:53:31.013Z,1.43
2018-08-11T08:55:57.986Z,1.43
2018-08-11T08:58:24.915Z,1.33
2018-08-11T09:00:51.890Z,1.23
2018-08-11T09:03:18.886Z,1.43
2018-08-11T09:05:45.829Z,1.90
2018-08-11T09:08:12.787Z,1.60
2018-08-11T09:10:39.714Z,1.77
2018-08-11T09:13:06.700Z,2.00
2018-08-11T09:15:33.639Z,1.43
2018-08-11T09:18:00.591Z,1.33
2018-08-11T09:20:27.525Z,1.40
2018-08-11T09:22:54.424Z,1.30
2018-08-11T09:25:21.414Z,1.37
2018-08-11T09:27:48.326Z,1.30
2018-08-11T09:30:16.062Z,1.60
2018-08-11T09:32:42.954Z,1.37
2018-08-11T09:35:10.038Z,1.60
2018-08-11T09:37:36.975Z,1.90
2018-08-11T09:40:04.322Z,1.20
2018-08-11T09:42:31.262Z,1.73
2018-08-11T09:44:58.186Z,1.37
2018-08-11T09:47:25.112Z,1.23
2018-08-11T09:49:52.606Z,1.87
2018-08-11T09:52:19.521Z,1.47
2018-08-11T09:54:46.485Z,1.37
2018-08-11T09:57:14.056Z,1.50
2018-08-11T09:59:41.010Z,1.70
2018-08-11T10:02:13.810Z,1.80
2018-08-11T10:04:42.650Z,1.33
2018-08-11T10:07:09.570Z,1.57
2018-08-11T10:09:36.545Z,1.33
2018-08-11T10:12:03.505Z,1.37
2018-08-11T10:14:30.422Z,1.50
2018-08-11T10:16:57.294Z,1.77
2018-08-11T10:19:24.277Z,1.30
2018-08-11T10:21:51.234Z,1.90
2018-08-11T10:24:20.074Z,1.30
2018-08-11T10:26:47.596Z,1.87
2018-08-11T10:29:14.546Z,1.70
2018-08-11T10:31:41.470Z,1.20
2018-08-11T10:34:08.389Z,1.30
2018-08-11T10:36:36.159Z,1.70
2018-08-11T10:39:05.238Z,1.30
2018-08-11T10:41:32.215Z,1.27
2018-08-11T10:43:59.174Z,1.43
2018-08-11T10:46:26.250Z,1.20
2018-08-11T10:48:54.121Z,1.57
2018-08-11T10:51:21.236Z,1.50
2018-08-11T10:53:48.156Z,1.40
2018-08-11T10:56:15.074Z,1.33
2018-08-11T10:58:42.002Z,1.37
2018-08-11T11:01:08.907Z,1.37
2018-08-11T11:03:35.833Z,1.30
2018-08-11T11:06:02.848Z,1.60
2018-08-11T11:08:29.895Z,1.67
2018-08-11T11:10:57.649Z,2.20
2018-08-11T11:13:25.180Z,1.57
2018-08-11T11:15:54.133Z,1.27
2018-08-11T11:18:21.593Z,1.60
2018-08-11T11:20:48.577Z,1.47
2018-08-11T11:23:15.510Z,1.20
2018-08-11T11:25:42.456Z,1.40
2018-08-11T11:28:10.141Z,1.20
2018-08-11T11:30:37.109Z,1.67
2018-08-11T11:33:04.133Z,1.40
2018-08-11T11:35:31.097Z,1.30
2018-08-11T11:37:58.065Z,1.30
2018-08-11T11:40:25.070Z,1.40
2018-08-11T11:42:52.158Z,1.97
2018-08-11T11:45:19.194Z,1.10
2018-08-11T11:47:46.116Z,1.70
2018-08-11T11:50:13.057Z,1.50
2018-08-11T11:52:41.649Z,1.20
2018-08-11T11:55:08.605Z,1.10
2018-08-11T11:57:35.593Z,1.77
2018-08-11T12:00:02.631Z,1.10
2018-08-11T12:02:29.498Z,1.20
2018-08-11T12:04:56.450Z,1.30
2018-08-11T12:07:23.434Z,0.90
2018-08-11T12:09:50.415Z,1.10
2018-08-11T12:12:17.309Z,0.97
2018-08-11T12:14:44.253Z,1.30
2018-08-11T12:17:11.301Z,1.10
2018-08-11T12:19:39.120Z,1.10
2018-08-11T12:22:06.069Z,1.33
2018-08-11T12:24:33.070Z,1.10
2018-08-11T12:26:59.998Z,1.07
2018-08-11T12:29:26.971Z,0.90
2018-08-11T12:31:53.913Z,1.10
2018-08-11T12:34:20.897Z,1.10
2018-08-11T12:36:47.822Z,1.00
2018-08-11T12:39:14.782Z,1.10
2018-08-11T12:41:41.740Z,1.17
2018-08-11T12:44:09.213Z,0.97
2018-08-11T12:46:36.180Z,1.07
2018-08-11T12:49:03.643Z,0.87
2018-08-11T12:51:30.569Z,1.20
2018-08-11T12:53:57.598Z,0.90
2018-08-11T12:56:24.485Z,1.00
2018-08-11T12:58:51.477Z,1.00
2018-08-11T13:01:18.405Z,1.20
2018-08-11T13:03:45.365Z,1.20
2018-08-11T13:06:14.162Z,1.10
2018-08-11T13:08:41.119Z,0.80
2018-08-11T13:11:08.106Z,1.00
2018-08-11T13:13:35.106Z,0.80
2018-08-11T13:16:02.212Z,0.90
2018-08-11T13:18:29.149Z,0.80
2018-08-11T13:20:56.126Z,0.83
2018-08-11T13:23:23.062Z,1.10
2018-08-11T13:25:50.062Z,1.10
2018-08-11T13:28:17.037Z,1.00
2018-08-11T13:30:43.973Z,1.00
2018-08-11T13:33:10.921Z,0.90
2018-08-11T13:35:37.982Z,1.00
2018-08-11T13:38:05.758Z,1.00
2018-08-11T13:40:32.719Z,1.00
2018-08-11T13:42:59.633Z,1.00
2018-08-11T13:45:26.639Z,0.90
2018-08-11T13:47:53.618Z,0.90
2018-08-11T13:50:20.530Z,0.97
2018-08-11T13:52:47.613Z,0.90
2018-08-11T13:55:14.631Z,0.80
2018-08-11T13:57:42.722Z,1.00
2018-08-11T14:00:10.093Z,1.10
2018-08-11T14:02:37.114Z,1.00
2018-08-11T14:05:04.775Z,0.80
2018-08-11T14:07:31.815Z,1.00
2018-08-11T14:09:58.759Z,0.97
2018-08-11T14:12:26.770Z,0.90
2018-08-11T14:14:53.699Z,1.07
2018-08-11T14:17:20.646Z,1.30
2018-08-11T14:19:47.618Z,1.00
2018-08-11T14:22:15.598Z,0.87
2018-08-11T14:24:42.533Z,1.00
2018-08-11T14:27:09.477Z,1.20
2018-08-11T14:29:36.470Z,1.13
2018-08-11T14:32:03.501Z,1.23
2018-08-11T14:34:30.514Z,1.00
2018-08-11T14:36:57.429Z,1.03
2018-08-11T14:39:24.390Z,0.80
2018-08-11T14:41:51.346Z,1.00
2018-08-11T14:44:18.362Z,1.07
2018-08-11T14:46:45.322Z,0.90
2018-08-11T14:49:12.226Z,1.00
2018-08-11T14:51:39.195Z,1.10
2018-08-11T14:54:06.147Z,1.00
2018-08-11T14:56:33.109Z,0.80
2018-08-11T14:59:00.043Z,0.80
2018-08-11T15:01:27.004Z,0.90
2018-08-11T15:03:53.992Z,0.90
2018-08-11T15:06:21.531Z,0.83
2018-08-11T15:08:48.493Z,0.93
2018-08-11T15:11:16.306Z,1.00
2018-08-11T15:13:43.219Z,1.00
2018-08-11T15:16:10.210Z,0.97
2018-08-11T15:18:37.295Z,1.00
2018-08-11T15:21:04.235Z,1.20
2018-08-11T15:23:31.231Z,1.30
2018-08-11T15:25:58.113Z,0.80
2018-08-11T15:28:25.074Z,1.10
2018-08-11T15:30:52.051Z,0.97
2018-08-11T15:33:19.030Z,0.83
2018-08-11T15:35:46.770Z,1.03
2018-08-11T15:38:14.252Z,0.80
2018-08-11T15:40:41.194Z,1.10
2018-08-11T15:43:08.170Z,0.80
2018-08-11T15:45:35.106Z,1.10
2018-08-11T15:48:02.061Z,1.10
2018-08-11T15:50:29.042Z,0.90
2018-08-11T15:52:55.997Z,0.90
2018-08-11T15:55:22.942Z,1.00
2018-08-11T15:57:49.912Z,1.10
2018-08-11T16:00:17.862Z,1.00
2018-08-11T16:02:44.850Z,0.80
2018-08-11T16:05:11.806Z,1.17
2018-08-11T16:07:38.771Z,0.80
2018-08-11T16:10:06.337Z,1.17
2018-08-11T16:12:33.309Z,1.40
2018-08-11T16:15:00.282Z,1.40
2018-08-11T16:17:27.403Z,1.00
2018-08-11T16:19:54.354Z,1.10
2018-08-11T16:22:21.333Z,0.83
2018-08-11T16:24:49.330Z,0.93
2018-08-11T16:27:16.320Z,1.47
2018-08-11T16:29:43.218Z,1.30
2018-08-11T16:32:10.254Z,1.20
2018-08-11T16:34:37.190Z,1.20
2018-08-11T16:37:04.128Z,1.00
2018-08-11T16:39:31.119Z,1.33
2018-08-11T16:41:58.010Z,1.00
2018-08-11T16:44:25.006Z,0.93
2018-08-11T16:46:51.957Z,1.00
2018-08-11T16:49:18.885Z,1.00
2018-08-11T16:51:45.845Z,1.03
2018-08-11T16:54:12.786Z,0.83
2018-08-11T16:56:39.822Z,1.20
2018-08-11T16:59:06.859Z,1.00
2018-08-11T17:01:33.812Z,1.37
2018-08-11T17:04:01.777Z,1.17
2018-08-11T17:06:28.704Z,1.27
2018-08-11T17:08:56.701Z,1.40
2018-08-11T17:11:23.636Z,0.90
2018-08-11T17:13:50.598Z,0.93
2018-08-11T17:16:17.637Z,1.00
2018-08-11T17:18:45.503Z,1.27
2018-08-11T17:21:11.776Z,1.13
2018-08-11T17:23:38.806Z,1.10
2018-08-11T17:26:05.761Z,1.17
2018-08-11T17:28:32.696Z,1.00
2018-08-11T17:30:59.649Z,1.23
2018-08-11T17:33:26.592Z,0.90
2018-08-11T17:35:53.533Z,1.37
2018-08-11T17:38:20.478Z,1.30
2018-08-11T17:40:47.499Z,0.90
2018-08-11T17:43:14.385Z,1.20
2018-08-11T17:45:41.370Z,1.27
2018-08-11T17:48:08.394Z,1.20
2018-08-11T17:50:35.898Z,1.10
2018-08-11T17:53:03.366Z,1.10
2018-08-11T17:55:30.381Z,0.97
2018-08-11T17:57:57.385Z,1.30
2018-08-11T18:00:24.319Z,1.37
2018-08-11T18:02:51.890Z,1.20
2018-08-11T18:05:18.900Z,1.27
2018-08-11T18:07:45.785Z,1.03
2018-08-11T18:10:12.698Z,1.30
2018-08-11T18:12:39.653Z,1.20
2018-08-11T18:15:06.607Z,1.27
2018-08-11T18:17:33.657Z,1.20
2018-08-11T18:20:01.338Z,1.23
2018-08-11T18:22:28.266Z,1.30
2018-08-11T18:24:55.247Z,1.17
2018-08-11T18:27:22.194Z,0.90
2018-08-11T18:29:49.120Z,1.30
2018-08-11T18:32:16.831Z,1.13
2018-08-11T18:34:43.843Z,1.20
2018-08-11T18:37:10.726Z,1.23
2018-08-11T18:39:37.721Z,1.23
2018-08-11T18:42:04.673Z,0.90
2018-08-11T18:44:31.614Z,1.30
2018-08-11T18:46:58.566Z,1.63
2018-08-11T18:49:25.547Z,1.10
2018-08-11T18:51:52.561Z,1.20
2018-08-11T18:54:19.578Z,1.00
2018-08-11T18:56:46.505Z,1.47
2018-08-11T18:59:13.459Z,1.30
2018-08-11T19:01:41.433Z,0.90
2018-08-11T19:04:08.881Z,1.10
2018-08-11T19:06:35.846Z,1.50
2018-08-11T19:09:04.875Z,1.37
2018-08-11T19:11:31.847Z,1.07
2018-08-11T19:13:58.757Z,1.23
2018-08-11T19:16:25.642Z,1.20
2018-08-11T19:18:52.596Z,1.40
2018-08-11T19:21:19.545Z,1.37
2018-08-11T19:23:47.481Z,1.50
2018-08-11T19:26:14.357Z,1.60
2018-08-11T19:28:41.243Z,1.67
2018-08-11T19:31:08.203Z,1.40
2018-08-11T19:33:35.177Z,1.27
2018-08-11T19:36:02.352Z,1.23
2018-08-11T19:38:29.278Z,1.30
2018-08-11T19:40:56.318Z,1.60
2018-08-11T19:43:23.215Z,1.30
2018-08-11T19:45:51.178Z,1.47
2018-08-11T19:48:18.155Z,1.70
2018-08-11T19:50:45.090Z,1.20
2018-08-11T19:53:12.041Z,1.70
2018-08-11T19:55:39.021Z,1.50
2018-08-11T19:58:05.977Z,1.60
2018-08-11T20:00:33.013Z,1.30
2018-08-11T20:02:59.982Z,1.30
2018-08-11T20:05:26.971Z,1.40
2018-08-11T20:07:53.946Z,1.33
2018-08-11T20:10:20.859Z,1.07
2018-08-11T20:12:47.893Z,1.47
2018-08-11T20:15:14.768Z,1.50
2018-08-11T20:17:41.741Z,1.50
2018-08-11T20:20:09.713Z,1.20
2018-08-11T20:22:36.698Z,1.40
2018-08-11T20:25:04.789Z,1.37
2018-08-11T20:27:31.764Z,1.40
2018-08-11T20:29:58.673Z,2.10
2018-08-11T20:32:25.621Z,1.57
2018-08-11T20:34:52.578Z,1.60
2018-08-11T20:37:19.615Z,1.60
2018-08-11T20:39:46.525Z,1.90
2018-08-11T20:42:13.453Z,1.47
2018-08-11T20:44:40.465Z,2.10
2018-08-11T20:47:07.490Z,1.60
2018-08-11T20:49:34.462Z,1.57
2018-08-11T20:52:01.363Z,1.60
2018-08-11T20:54:28.263Z,1.50
2018-08-11T20:56:55.271Z,2.10
2018-08-11T20:59:22.173Z,1.57
2018-08-11T21:01:49.099Z,1.73
2018-08-11T21:04:16.053Z,1.80
2018-08-11T21:06:43.025Z,2.03
2018-08-11T21:09:11.623Z,2.30
2018-08-11T21:11:38.614Z,2.70
2018-08-11T21:14:05.953Z,2.20
2018-08-11T21:16:33.970Z,1.47
2018-08-11T21:19:01.971Z,2.30
2018-08-11T21:21:28.886Z,2.40
2018-08-11T21:23:55.866Z,1.90
2018-08-11T21:26:22.697Z,3.07
2018-08-11T21:28:49.656Z,2.80
2018-08-11T21:31:16.606Z,2.20
2018-08-11T21:33:43.754Z,3.17
2018-08-11T21:36:10.721Z,3.33
2018-08-11T21:38:37.702Z,3.20
2018-08-11T21:41:04.650Z,3.17
2018-08-11T21:43:31.607Z,3.10
2018-08-11T21:45:58.525Z,3.83
2018-08-11T21:48:26.022Z,4.40
2018-08-11T21:50:53.481Z,6.27
2018-08-11T21:53:20.458Z,8.07
2018-08-11T21:55:47.374Z,7.60
2018-08-11T21:58:14.249Z,7.70
2018-08-11T22:00:55.667Z,6.73
2018-08-11T22:03:22.628Z,7.17
2018-08-11T22:05:49.797Z,5.23
2018-08-11T22:08:16.729Z,4.33
2018-08-11T22:10:43.691Z,4.60
2018-08-11T22:13:11.494Z,4.90
2018-08-11T22:15:38.446Z,3.77
2018-08-11T22:18:05.355Z,4.30
2018-08-11T22:20:32.397Z,3.53
2018-08-11T22:22:59.289Z,3.47
2018-08-11T22:25:26.255Z,2.93
2018-08-11T22:27:53.201Z,3.10
2018-08-11T22:30:20.950Z,2.40
2018-08-11T22:32:47.866Z,2.90
2018-08-11T22:35:14.814Z,2.83
2018-08-11T22:37:41.770Z,2.40
2018-08-11T22:40:08.730Z,2.40
2018-08-11T22:42:36.481Z,2.00
2018-08-11T22:45:06.562Z,2.23
2018-08-11T22:47:34.029Z,1.90
2018-08-11T22:50:01.592Z,2.20
2018-08-11T22:52:28.515Z,2.60
2018-08-11T22:54:55.502Z,2.53
2018-08-11T22:57:22.425Z,2.57
2018-08-11T22:59:49.400Z,2.40
2018-08-11T23:02:17.085Z,2.50
2018-08-11T23:04:44.250Z,2.20
2018-08-11T23:07:11.243Z,2.70
2018-08-11T23:09:38.170Z,2.17
2018-08-11T23:12:06.543Z,2.60
2018-08-11T23:14:33.498Z,2.30
2018-08-11T23:17:01.110Z,2.13
2018-08-11T23:19:29.045Z,3.60
2018-08-11T23:21:57.049Z,3.27
2018-08-11T23:24:24.031Z,2.90
2018-08-11T23:26:50.977Z,2.33
2018-08-11T23:29:17.934Z,3.03
2018-08-11T23:31:44.843Z,3.20
2018-08-11T23:34:12.883Z,2.73
2018-08-11T23:36:39.769Z,2.20
2018-08-11T23:39:07.569Z,2.27
2018-08-11T23:41:34.633Z,2.57
2018-08-11T23:44:01.666Z,2.13
2018-08-11T23:46:28.518Z,2.63
2018-08-11T23:48:55.493Z,3.03
2018-08-11T23:51:22.470Z,2.63
2018-08-11T23:53:50.466Z,2.60
2018-08-11T23:56:17.369Z,2.60
